createdAt,value
2018-03-27T00:00:31.636Z,95.80
2018-03-27T00:02:59.141Z,96.30
2018-03-27T00:05:26.650Z,96.30
2018-03-27T00:07:54.159Z,96.10
2018-03-27T00:10:21.665Z,95.50
2018-03-27T00:12:49.168Z,95.30
2018-03-27T00:15:16.682Z,95.60
2018-03-27T00:17:44.216Z,95.70
2018-03-27T00:20:12.147Z,96.00
2018-03-27T00:22:39.650Z,96.00
2018-03-27T00:25:07.156Z,96.10
2018-03-27T00:27:46.432Z,96.30
2018-03-27T00:30:26.112Z,96.20
2018-03-27T00:33:05.506Z,96.20
2018-03-27T00:35:45.088Z,96.10
2018-03-27T00:38:24.423Z,96.10
2018-03-27T00:40:51.439Z,96.10
2018-03-27T00:43:18.934Z,95.80
2018-03-27T00:45:46.438Z,96.00
2018-03-27T00:48:14.339Z,95.90
2018-03-27T00:50:41.840Z,95.80
2018-03-27T00:53:09.351Z,96.00
2018-03-27T00:55:36.865Z,96.10
2018-03-27T00:58:04.367Z,96.20
2018-03-27T01:00:31.867Z,96.20
2018-03-27T01:02:59.362Z,96.00
2018-03-27T01:05:26.858Z,96.00
2018-03-27T01:07:54.361Z,95.90
2018-03-27T01:10:22.255Z,95.80
2018-03-27T01:12:49.771Z,95.80
2018-03-27T01:15:17.676Z,96.00
2018-03-27T01:17:46.422Z,96.00
2018-03-27T01:20:13.943Z,95.90
2018-03-27T01:22:41.460Z,96.10
2018-03-27T01:25:09.532Z,95.80
2018-03-27T01:27:38.925Z,95.80
2018-03-27T01:30:06.476Z,95.80
2018-03-27T01:32:33.989Z,95.90
2018-03-27T01:35:01.488Z,95.90
2018-03-27T01:37:28.992Z,95.80
2018-03-27T01:39:56.497Z,95.70
2018-03-27T01:42:24.015Z,95.60
2018-03-27T01:44:51.514Z,95.70
2018-03-27T01:47:19.027Z,95.40
2018-03-27T01:49:46.511Z,95.20
2018-03-27T01:52:14.028Z,95.20
2018-03-27T01:54:41.527Z,95.20
2018-03-27T01:57:09.057Z,95.20
2018-03-27T01:59:36.593Z,95.10
2018-03-27T02:02:04.108Z,95.00
2018-03-27T02:04:31.767Z,95.40
2018-03-27T02:06:59.263Z,95.20
2018-03-27T02:09:26.761Z,95.00
2018-03-27T02:12:00.089Z,95.20
2018-03-27T02:14:33.589Z,95.10
2018-03-27T02:17:07.307Z,95.10
2018-03-27T02:19:40.976Z,95.20
2018-03-27T02:22:08.487Z,95.20
2018-03-27T02:24:37.965Z,95.20
2018-03-27T02:27:05.859Z,95.20
2018-03-27T02:29:33.361Z,95.20
2018-03-27T02:32:00.853Z,95.10
2018-03-27T02:34:28.372Z,95.20
2018-03-27T02:36:55.871Z,95.20
2018-03-27T02:39:23.770Z,95.30
2018-03-27T02:41:51.276Z,95.30
2018-03-27T02:44:19.180Z,95.40
2018-03-27T02:46:46.675Z,95.40
2018-03-27T02:49:14.184Z,95.30
2018-03-27T02:51:41.697Z,95.30
2018-03-27T02:54:09.199Z,95.10
2018-03-27T02:56:36.720Z,95.30
2018-03-27T02:59:04.217Z,95.30
2018-03-27T03:01:31.782Z,95.80
2018-03-27T03:03:59.275Z,95.90
2018-03-27T03:06:26.778Z,95.80
2018-03-27T03:08:54.708Z,95.80
2018-03-27T03:11:22.215Z,95.80
2018-03-27T03:13:49.727Z,96.10
2018-03-27T03:16:17.239Z,96.40
2018-03-27T03:18:44.736Z,96.40
2018-03-27T03:21:12.234Z,96.60
2018-03-27T03:23:40.167Z,97.00
2018-03-27T03:26:07.668Z,97.00
2018-03-27T03:28:35.185Z,97.00
2018-03-27T03:31:02.693Z,97.00
2018-03-27T03:33:30.200Z,97.00
2018-03-27T03:35:57.714Z,97.00
2018-03-27T03:38:25.220Z,97.00
2018-03-27T03:40:52.731Z,97.00
2018-03-27T03:43:20.238Z,97.00
2018-03-27T03:45:47.744Z,97.00
2018-03-27T03:48:15.266Z,97.00
2018-03-27T03:50:43.216Z,97.00
2018-03-27T03:53:10.720Z,97.00
2018-03-27T03:55:38.214Z,97.00
2018-03-27T03:58:05.714Z,97.00
2018-03-27T04:00:33.653Z,97.00
2018-03-27T04:03:01.228Z,97.00
2018-03-27T04:05:28.775Z,97.00
2018-03-27T04:07:56.291Z,97.00
2018-03-27T04:10:23.827Z,97.00
2018-03-27T04:12:51.369Z,97.00
2018-03-27T04:15:19.360Z,97.00
2018-03-27T04:17:46.895Z,97.00
2018-03-27T04:20:14.509Z,97.00
2018-03-27T04:22:42.072Z,97.00
2018-03-27T04:25:09.574Z,97.00
2018-03-27T04:27:37.476Z,97.00
2018-03-27T04:30:05.003Z,97.00
2018-03-27T04:32:32.536Z,97.00
2018-03-27T04:35:00.028Z,97.00
2018-03-27T04:37:27.523Z,97.00
2018-03-27T04:39:55.020Z,97.00
2018-03-27T04:42:22.546Z,97.00
2018-03-27T04:44:50.037Z,97.00
2018-03-27T04:47:17.549Z,97.00
2018-03-27T04:49:45.065Z,97.00
2018-03-27T04:52:12.936Z,97.00
2018-03-27T04:54:40.441Z,97.00
2018-03-27T04:57:07.970Z,97.00
2018-03-27T04:59:35.555Z,97.00
2018-03-27T05:02:03.051Z,97.00
2018-03-27T05:04:30.954Z,97.00
2018-03-27T05:06:58.461Z,97.00
2018-03-27T05:09:25.967Z,97.00
2018-03-27T05:11:53.471Z,97.00
2018-03-27T05:14:20.993Z,97.00
2018-03-27T05:16:48.498Z,97.00
2018-03-27T05:19:16.009Z,97.00
2018-03-27T05:21:43.527Z,97.00
2018-03-27T05:24:11.422Z,97.00
2018-03-27T05:26:38.926Z,97.00
2018-03-27T05:29:06.486Z,97.00
2018-03-27T05:31:33.994Z,97.00
2018-03-27T05:34:01.523Z,97.00
2018-03-27T05:36:29.415Z,97.00
2018-03-27T05:38:56.938Z,97.00
2018-03-27T05:41:24.836Z,97.00
2018-03-27T05:43:52.337Z,97.00
2018-03-27T05:46:19.838Z,97.00
2018-03-27T05:48:47.726Z,97.00
2018-03-27T05:51:15.213Z,97.00
2018-03-27T05:53:42.715Z,97.00
2018-03-27T05:56:10.615Z,97.00
2018-03-27T05:58:38.129Z,97.00
2018-03-27T06:01:06.031Z,97.00
2018-03-27T06:03:33.533Z,97.00
2018-03-27T06:06:01.051Z,97.00
2018-03-27T06:08:28.556Z,97.00
2018-03-27T06:10:56.071Z,97.00
2018-03-27T06:13:23.579Z,96.70
2018-03-27T06:15:51.475Z,96.10
2018-03-27T06:18:18.988Z,96.10
2018-03-27T06:20:46.496Z,95.60
2018-03-27T06:23:14.009Z,94.50
2018-03-27T06:25:41.893Z,92.30
2018-03-27T06:28:09.805Z,92.00
2018-03-27T06:30:37.304Z,92.00
2018-03-27T06:33:05.196Z,91.80
2018-03-27T06:35:32.728Z,91.80
2018-03-27T06:38:00.623Z,92.20
2018-03-27T06:40:28.128Z,92.20
2018-03-27T06:42:55.642Z,92.40
2018-03-27T06:45:23.172Z,92.60
2018-03-27T06:47:51.094Z,92.90
2018-03-27T06:50:18.594Z,92.80
2018-03-27T06:52:46.575Z,92.70
2018-03-27T06:55:14.139Z,92.70
2018-03-27T06:57:41.656Z,92.60
2018-03-27T07:00:09.196Z,92.00
2018-03-27T07:02:36.700Z,91.20
2018-03-27T07:05:04.265Z,90.60
2018-03-27T07:07:31.823Z,90.70
2018-03-27T07:09:59.342Z,90.30
2018-03-27T07:12:26.931Z,90.40
2018-03-27T07:14:54.929Z,90.10
2018-03-27T07:17:22.478Z,90.10
2018-03-27T07:19:50.375Z,89.80
2018-03-27T07:22:18.023Z,89.80
2018-03-27T07:24:45.593Z,89.40
2018-03-27T07:27:13.184Z,89.30
2018-03-27T07:29:40.691Z,89.20
2018-03-27T07:32:08.292Z,89.30
2018-03-27T07:34:36.016Z,89.60
2018-03-27T07:37:03.539Z,90.00
2018-03-27T07:39:31.435Z,91.00
2018-03-27T07:41:58.947Z,91.00
2018-03-27T07:44:26.439Z,90.80
2018-03-27T07:46:53.937Z,90.50
2018-03-27T07:49:21.450Z,91.60
2018-03-27T07:51:49.341Z,90.80
2018-03-27T07:54:16.855Z,90.80
2018-03-27T07:56:44.342Z,90.90
2018-03-27T07:59:11.867Z,90.80
2018-03-27T08:01:39.361Z,90.70
2018-03-27T08:04:06.855Z,90.00
2018-03-27T08:06:34.356Z,89.60
2018-03-27T08:09:02.256Z,87.30
2018-03-27T08:11:29.786Z,87.30
2018-03-27T08:13:57.670Z,85.90
2018-03-27T08:16:25.162Z,85.90
2018-03-27T08:18:52.659Z,86.30
2018-03-27T08:21:20.563Z,85.20
2018-03-27T08:23:48.042Z,85.20
2018-03-27T08:26:15.532Z,84.20
2018-03-27T08:28:43.431Z,81.70
2018-03-27T08:31:10.927Z,81.70
2018-03-27T08:33:38.436Z,80.90
2018-03-27T08:36:05.931Z,79.90
2018-03-27T08:38:33.410Z,79.40
2018-03-27T08:41:00.913Z,78.80
2018-03-27T08:43:28.451Z,78.50
2018-03-27T08:46:06.156Z,77.40
2018-03-27T08:48:34.067Z,76.40
2018-03-27T08:51:01.581Z,76.30
2018-03-27T08:53:32.365Z,76.20
2018-03-27T08:56:00.700Z,75.40
2018-03-27T08:58:28.198Z,75.30
2018-03-27T09:00:55.687Z,75.10
2018-03-27T09:03:23.195Z,75.00
2018-03-27T09:05:50.690Z,74.40
2018-03-27T09:08:18.191Z,74.70
2018-03-27T09:10:45.679Z,74.60
2018-03-27T09:13:13.188Z,73.70
2018-03-27T09:15:41.093Z,74.00
2018-03-27T09:18:10.447Z,74.00
2018-03-27T09:20:38.358Z,73.60
2018-03-27T09:23:05.863Z,73.60
2018-03-27T09:25:33.403Z,74.00
2018-03-27T09:28:00.899Z,72.70
2018-03-27T09:30:29.778Z,72.30
2018-03-27T09:32:57.663Z,72.60
2018-03-27T09:35:25.187Z,72.60
2018-03-27T09:37:54.931Z,72.60
2018-03-27T09:40:22.430Z,72.70
2018-03-27T09:42:50.572Z,71.70
2018-03-27T09:45:18.076Z,72.50
2018-03-27T09:47:45.559Z,72.10
2018-03-27T09:50:13.451Z,71.10
2018-03-27T09:52:40.943Z,71.10
2018-03-27T09:55:08.453Z,70.80
2018-03-27T09:57:35.984Z,71.20
2018-03-27T10:00:03.470Z,71.00
2018-03-27T10:02:30.979Z,70.90
2018-03-27T10:04:58.479Z,70.90
2018-03-27T10:07:25.990Z,71.70
2018-03-27T10:09:54.625Z,71.70
2018-03-27T10:12:23.193Z,71.70
2018-03-27T10:14:52.145Z,71.70
2018-03-27T10:17:20.934Z,70.90
2018-03-27T10:19:49.826Z,70.40
2018-03-27T10:22:19.276Z,69.80
2018-03-27T10:24:47.307Z,69.80
2018-03-27T10:27:15.673Z,70.30
2018-03-27T10:29:43.168Z,70.30
2018-03-27T10:32:10.658Z,71.00
2018-03-27T10:34:38.171Z,71.30
2018-03-27T10:37:05.663Z,70.90
2018-03-27T10:39:33.167Z,70.20
2018-03-27T10:42:00.659Z,69.90
2018-03-27T10:44:28.573Z,70.10
2018-03-27T10:46:56.071Z,70.00
2018-03-27T10:49:23.997Z,69.00
2018-03-27T10:51:51.519Z,69.00
2018-03-27T10:54:19.042Z,69.20
2018-03-27T10:56:46.560Z,68.90
2018-03-27T10:59:14.059Z,68.40
2018-03-27T11:01:41.579Z,67.60
2018-03-27T11:04:09.078Z,67.70
2018-03-27T11:06:36.582Z,67.90
2018-03-27T11:09:04.082Z,67.40
2018-03-27T11:11:31.599Z,67.70
2018-03-27T11:13:59.095Z,67.80
2018-03-27T11:16:26.645Z,67.80
2018-03-27T11:18:54.148Z,67.80
2018-03-27T11:21:21.656Z,67.90
2018-03-27T11:23:49.162Z,67.70
2018-03-27T11:26:17.058Z,67.30
2018-03-27T11:28:44.569Z,67.30
2018-03-27T11:31:12.463Z,65.80
2018-03-27T11:33:39.967Z,65.80
2018-03-27T11:36:07.480Z,65.20
2018-03-27T11:38:35.040Z,62.50
2018-03-27T11:41:02.561Z,63.00
2018-03-27T11:43:30.051Z,62.90
2018-03-27T11:45:57.569Z,63.90
2018-03-27T11:48:25.150Z,64.50
2018-03-27T11:50:52.608Z,64.50
2018-03-27T11:53:20.496Z,64.40
2018-03-27T11:55:48.003Z,64.40
2018-03-27T11:58:15.503Z,64.40
2018-03-27T12:00:43.019Z,63.30
2018-03-27T12:03:10.531Z,61.10
2018-03-27T12:05:38.080Z,63.80
2018-03-27T12:08:05.584Z,64.90
2018-03-27T12:10:33.084Z,64.90
2018-03-27T12:13:00.979Z,65.20
2018-03-27T12:15:28.488Z,65.20
2018-03-27T12:17:56.375Z,63.60
2018-03-27T12:20:23.887Z,63.60
2018-03-27T12:22:51.378Z,63.00
2018-03-27T12:25:19.277Z,61.30
2018-03-27T12:27:46.802Z,61.30
2018-03-27T12:30:14.689Z,60.10
2018-03-27T12:32:42.179Z,60.10
2018-03-27T12:35:09.693Z,59.60
2018-03-27T12:37:37.208Z,57.90
2018-03-27T12:40:04.767Z,54.50
2018-03-27T12:42:32.319Z,53.70
2018-03-27T12:44:59.823Z,54.00
2018-03-27T12:47:27.720Z,58.30
2018-03-27T12:49:55.224Z,58.30
2018-03-27T12:52:22.717Z,58.10
2018-03-27T12:54:50.264Z,55.70
2018-03-27T12:57:18.600Z,55.80
2018-03-27T12:59:46.112Z,55.00
2018-03-27T13:02:14.073Z,55.20
2018-03-27T13:04:41.608Z,54.80
2018-03-27T13:07:09.504Z,54.10
2018-03-27T13:09:37.068Z,54.10
2018-03-27T13:12:04.572Z,53.40
2018-03-27T13:14:32.073Z,53.10
2018-03-27T13:16:59.564Z,53.10
2018-03-27T13:19:27.083Z,52.70
2018-03-27T13:21:54.639Z,52.20
2018-03-27T13:24:22.192Z,52.30
2018-03-27T13:26:50.138Z,53.90
2018-03-27T13:29:17.632Z,53.90
2018-03-27T13:31:45.131Z,54.30
2018-03-27T13:34:12.635Z,53.80
2018-03-27T13:36:40.551Z,54.00
2018-03-27T13:39:08.068Z,54.00
2018-03-27T13:41:35.559Z,54.90
2018-03-27T13:44:03.050Z,57.70
2018-03-27T13:46:30.572Z,57.00
2018-03-27T13:48:58.106Z,54.10
2018-03-27T13:51:25.611Z,54.60
2018-03-27T13:53:53.128Z,54.90
2018-03-27T13:56:20.623Z,55.70
2018-03-27T13:58:48.138Z,55.20
2018-03-27T14:01:15.648Z,55.20
2018-03-27T14:03:43.159Z,55.50
2018-03-27T14:06:10.664Z,55.90
2018-03-27T14:08:38.174Z,55.60
2018-03-27T14:11:05.694Z,55.30
2018-03-27T14:13:33.598Z,56.70
2018-03-27T14:16:01.092Z,56.80
2018-03-27T14:18:28.604Z,58.90
2018-03-27T14:20:56.107Z,59.10
2018-03-27T14:23:23.616Z,58.30
2018-03-27T14:25:51.140Z,58.40
2018-03-27T14:28:19.046Z,60.80
2018-03-27T14:30:46.623Z,60.70
2018-03-27T14:33:14.119Z,61.40
2018-03-27T14:35:41.620Z,61.90
2018-03-27T14:38:09.155Z,61.90
2018-03-27T14:40:36.627Z,61.70
2018-03-27T14:43:04.120Z,62.30
2018-03-27T14:45:31.616Z,62.60
2018-03-27T14:47:59.524Z,63.00
2018-03-27T14:50:27.077Z,63.00
2018-03-27T14:52:54.594Z,63.80
2018-03-27T14:55:22.505Z,64.80
2018-03-27T14:57:50.022Z,64.90
2018-03-27T15:00:17.913Z,63.20
2018-03-27T15:02:45.431Z,63.20
2018-03-27T15:05:12.971Z,63.70
2018-03-27T15:07:40.463Z,64.40
2018-03-27T15:10:08.393Z,64.70
2018-03-27T15:12:35.947Z,64.70
2018-03-27T15:15:03.467Z,64.60
2018-03-27T15:17:30.966Z,64.30
2018-03-27T15:19:58.480Z,64.60
2018-03-27T15:22:25.994Z,64.60
2018-03-27T15:24:54.641Z,64.60
2018-03-27T15:27:22.213Z,65.00
2018-03-27T15:29:49.716Z,65.20
2018-03-27T15:32:17.639Z,65.00
2018-03-27T15:34:45.135Z,65.00
2018-03-27T15:37:13.042Z,65.00
2018-03-27T15:39:40.554Z,65.00
2018-03-27T15:42:08.059Z,64.50
2018-03-27T15:44:35.569Z,64.30
2018-03-27T15:47:03.106Z,64.50
2018-03-27T15:49:30.608Z,64.60
2018-03-27T15:51:58.506Z,64.80
2018-03-27T15:54:26.023Z,64.80
2018-03-27T15:56:53.931Z,65.50
2018-03-27T15:59:21.457Z,65.50
2018-03-27T16:01:49.362Z,65.90
2018-03-27T16:04:16.895Z,65.90
2018-03-27T16:06:44.447Z,66.10
2018-03-27T16:09:11.978Z,65.80
2018-03-27T16:11:39.479Z,66.10
2018-03-27T16:14:07.051Z,66.50
2018-03-27T16:16:34.656Z,66.30
2018-03-27T16:19:02.620Z,66.50
2018-03-27T16:21:30.560Z,67.00
2018-03-27T16:23:58.047Z,67.00
2018-03-27T16:26:25.539Z,67.10
2018-03-27T16:28:54.097Z,67.40
2018-03-27T16:31:27.047Z,67.80
2018-03-27T16:33:55.284Z,67.80
2018-03-27T16:36:22.774Z,68.10
2018-03-27T16:38:50.344Z,68.20
2018-03-27T16:41:17.832Z,67.90
2018-03-27T16:43:45.730Z,68.30
2018-03-27T16:46:13.226Z,68.30
2018-03-27T16:48:40.720Z,68.40
2018-03-27T16:51:08.614Z,68.30
2018-03-27T16:53:36.102Z,68.30
2018-03-27T16:56:03.648Z,68.20
2018-03-27T16:58:31.115Z,68.00
2018-03-27T17:00:58.661Z,68.00
2018-03-27T17:03:26.160Z,68.20
2018-03-27T17:05:54.092Z,66.70
2018-03-27T17:08:23.607Z,66.70
2018-03-27T17:10:51.111Z,65.70
2018-03-27T17:13:18.805Z,66.00
2018-03-27T17:15:46.351Z,66.00
2018-03-27T17:18:13.860Z,65.80
2018-03-27T17:20:41.535Z,65.90
2018-03-27T17:23:09.181Z,66.00
2018-03-27T17:25:36.792Z,66.00
2018-03-27T17:28:04.441Z,66.90
2018-03-27T17:30:31.992Z,67.10
2018-03-27T17:32:59.498Z,67.40
2018-03-27T17:35:27.018Z,68.30
2018-03-27T17:37:54.513Z,68.90
2018-03-27T17:40:22.015Z,69.60
2018-03-27T17:42:49.976Z,70.70
2018-03-27T17:45:17.894Z,70.10
2018-03-27T17:47:45.408Z,70.10
2018-03-27T17:50:12.953Z,70.60
2018-03-27T17:52:40.854Z,71.50
2018-03-27T17:55:08.352Z,71.50
2018-03-27T17:57:36.350Z,73.50
2018-03-27T18:00:04.487Z,75.70
2018-03-27T18:02:32.040Z,75.70
2018-03-27T18:04:59.571Z,76.20
2018-03-27T18:07:27.072Z,78.00
2018-03-27T18:09:56.594Z,79.10
2018-03-27T18:12:25.562Z,79.20
2018-03-27T18:14:54.814Z,79.80
2018-03-27T18:17:22.562Z,80.60
2018-03-27T18:19:50.452Z,81.00
2018-03-27T18:22:17.942Z,81.60
2018-03-27T18:24:45.497Z,81.80
2018-03-27T18:27:12.991Z,82.40
2018-03-27T18:29:40.906Z,83.20
2018-03-27T18:32:09.645Z,83.20
2018-03-27T18:34:37.193Z,83.70
2018-03-27T18:37:05.106Z,84.90
2018-03-27T18:39:32.596Z,84.90
2018-03-27T18:42:00.104Z,85.00
2018-03-27T18:44:27.611Z,85.80
2018-03-27T18:46:55.101Z,85.80
2018-03-27T18:49:23.042Z,86.10
2018-03-27T18:51:51.829Z,86.10
2018-03-27T18:54:23.052Z,86.60
2018-03-27T18:56:50.666Z,86.70
2018-03-27T18:59:18.188Z,87.10
2018-03-27T19:01:45.684Z,86.70
2018-03-27T19:04:13.194Z,87.10
2018-03-27T19:06:40.682Z,87.40
2018-03-27T19:09:08.804Z,87.50
2018-03-27T19:11:36.311Z,87.50
2018-03-27T19:14:04.212Z,88.10
2018-03-27T19:16:31.843Z,88.00
2018-03-27T19:18:59.368Z,87.60
2018-03-27T19:21:26.889Z,87.80
2018-03-27T19:23:54.392Z,88.30
2018-03-27T19:26:22.799Z,88.90
2018-03-27T19:28:50.798Z,89.60
2018-03-27T19:31:18.283Z,89.60
2018-03-27T19:33:45.862Z,90.30
2018-03-27T19:36:13.363Z,90.10
2018-03-27T19:38:40.872Z,90.00
2018-03-27T19:41:08.362Z,90.40
2018-03-27T19:43:35.879Z,90.00
2018-03-27T19:46:03.387Z,90.50
2018-03-27T19:48:30.907Z,91.20
2018-03-27T19:50:58.427Z,91.40
2018-03-27T19:53:26.908Z,91.80
2018-03-27T19:55:54.419Z,91.90
2018-03-27T19:58:22.331Z,92.00
2018-03-27T20:00:49.860Z,92.00
2018-03-27T20:03:17.369Z,92.00
2018-03-27T20:05:44.864Z,92.40
2018-03-27T20:08:13.879Z,92.80
2018-03-27T20:10:41.381Z,92.80
2018-03-27T20:13:08.908Z,92.90
2018-03-27T20:15:41.704Z,92.90
2018-03-27T20:20:57.244Z,93.20
2018-03-27T20:23:25.147Z,93.50
2018-03-27T20:25:52.655Z,93.50
2018-03-27T20:28:20.192Z,93.70
2018-03-27T20:30:47.738Z,93.80
2018-03-27T20:33:15.229Z,93.90
2018-03-27T20:35:42.744Z,94.00
2018-03-27T20:38:10.289Z,94.20
2018-03-27T20:40:38.712Z,94.80
2018-03-27T20:43:06.223Z,94.50
2018-03-27T20:45:33.720Z,94.60
2018-03-27T20:48:01.780Z,94.00
2018-03-27T20:50:30.426Z,94.20
2018-03-27T20:52:59.028Z,94.80
2018-03-27T20:55:26.531Z,94.20
2018-03-27T20:57:54.039Z,94.40
2018-03-27T21:00:21.542Z,95.00
2018-03-27T21:02:49.040Z,94.90
2018-03-27T21:07:58.619Z,95.10
2018-03-27T21:10:26.128Z,95.10
2018-03-27T21:12:53.738Z,95.30
2018-03-27T21:15:21.184Z,95.40
2018-03-27T21:17:48.671Z,95.60
2018-03-27T21:20:16.253Z,95.60
2018-03-27T21:22:43.752Z,96.00
2018-03-27T21:25:11.261Z,96.10
2018-03-27T21:27:38.840Z,96.00
2018-03-27T21:30:06.817Z,96.20
2018-03-27T21:32:34.391Z,96.20
2018-03-27T21:35:02.294Z,96.10
2018-03-27T21:37:30.000Z,96.30
2018-03-27T21:39:57.701Z,96.30
2018-03-27T21:42:25.222Z,96.30
2018-03-27T21:44:52.951Z,96.20
2018-03-27T21:47:20.508Z,96.40
2018-03-27T21:49:48.119Z,96.40
2018-03-27T21:52:15.607Z,96.40
2018-03-27T21:54:46.452Z,96.50
2018-03-27T21:57:13.987Z,96.30
2018-03-27T21:59:52.694Z,95.90
2018-03-27T22:02:20.764Z,96.20
2018-03-27T22:04:48.328Z,95.80
2018-03-27T22:07:15.860Z,95.80
2018-03-27T22:09:43.382Z,95.80
2018-03-27T22:12:10.891Z,95.80
2018-03-27T22:14:38.664Z,95.80
2018-03-27T22:17:09.790Z,96.30
2018-03-27T22:19:37.303Z,96.00
2018-03-27T22:22:04.835Z,95.60
2018-03-27T22:24:32.332Z,95.50
2018-03-27T22:26:59.870Z,95.50
2018-03-27T22:29:27.401Z,95.30
2018-03-27T22:31:55.560Z,95.10
2018-03-27T22:34:23.072Z,95.10
2018-03-27T22:36:50.599Z,94.90
2018-03-27T22:39:18.112Z,94.80
2018-03-27T22:41:45.619Z,94.80
2018-03-27T22:44:13.273Z,94.70
2018-03-27T22:46:40.958Z,94.80
2018-03-27T22:49:08.613Z,94.50
2018-03-27T22:51:37.778Z,94.60
2018-03-27T22:54:06.426Z,94.50
2018-03-27T22:56:34.324Z,94.40
2018-03-27T22:59:02.102Z,94.40
2018-03-27T23:01:29.916Z,94.10
2018-03-27T23:03:57.441Z,93.80
2018-03-27T23:06:25.207Z,93.30
2018-03-27T23:08:52.743Z,93.20
2018-03-27T23:11:20.264Z,93.50
2018-03-27T23:13:48.165Z,93.00
2018-03-27T23:16:15.875Z,93.00
2018-03-27T23:18:43.409Z,92.80
2018-03-27T23:21:11.063Z,92.40
2018-03-27T23:23:39.687Z,92.00
2018-03-27T23:26:07.230Z,92.10
2018-03-27T23:28:35.300Z,91.20
2018-03-27T23:31:02.820Z,91.20
2018-03-27T23:33:30.344Z,91.50
2018-03-27T23:35:58.245Z,91.60
2018-03-27T23:38:25.815Z,91.60
2018-03-27T23:40:53.359Z,91.40
2018-03-27T23:43:20.864Z,91.40
2018-03-27T23:45:48.351Z,91.30
2018-03-27T23:48:16.252Z,91.60
2018-03-27T23:50:43.743Z,91.60
2018-03-27T23:53:11.285Z,91.30
2018-03-27T23:55:38.760Z,91.30
2018-03-27T23:58:06.276Z,90.90
